createdAt,value
2018-11-13T00:00:21.410Z,8.93
2018-11-13T00:02:50.365Z,8.91
2018-11-13T00:05:18.438Z,9.03
2018-11-13T00:07:46.871Z,9.10
2018-11-13T00:10:14.971Z,9.05
2018-11-13T00:12:43.207Z,8.97
2018-11-13T00:15:12.101Z,8.87
2018-11-13T00:17:40.459Z,8.78
2018-11-13T00:20:10.735Z,8.72
2018-11-13T00:22:38.988Z,8.69
2018-11-13T00:25:08.692Z,8.64
2018-11-13T00:27:36.874Z,8.53
2018-11-13T00:30:06.659Z,8.57
2018-11-13T00:32:34.635Z,8.63
2018-11-13T00:35:03.040Z,8.75
2018-11-13T00:37:31.323Z,8.76
2018-11-13T00:39:59.863Z,8.85
2018-11-13T00:42:28.101Z,8.86
2018-11-13T00:44:56.579Z,8.88
2018-11-13T00:47:24.720Z,8.76
2018-11-13T00:49:53.106Z,8.79
2018-11-13T00:52:21.403Z,8.81
2018-11-13T00:54:49.786Z,8.84
2018-11-13T00:57:18.143Z,8.69
2018-11-13T00:59:46.651Z,8.59
2018-11-13T01:02:14.891Z,8.47
2018-11-13T01:04:43.342Z,8.38
2018-11-13T01:07:12.196Z,8.28
2018-11-13T01:09:40.167Z,8.26
2018-11-13T01:12:08.382Z,8.25
2018-11-13T01:14:36.431Z,8.23
2018-11-13T01:17:04.372Z,7.90
2018-11-13T01:19:32.618Z,7.79
2018-11-13T01:22:00.866Z,7.87
2018-11-13T01:24:29.293Z,7.84
2018-11-13T01:26:57.454Z,7.60
2018-11-13T01:29:25.745Z,7.62
2018-11-13T01:31:54.035Z,7.55
2018-11-13T01:34:22.273Z,7.44
2018-11-13T01:36:50.735Z,7.47
2018-11-13T01:39:18.827Z,7.47
2018-11-13T01:41:47.642Z,7.40
2018-11-13T01:44:15.625Z,7.47
2018-11-13T01:46:44.112Z,7.43
2018-11-13T01:49:12.351Z,7.39
2018-11-13T01:51:40.807Z,7.39
2018-11-13T01:54:09.194Z,7.37
2018-11-13T01:56:37.389Z,7.52
2018-11-13T01:59:05.669Z,7.62
2018-11-13T02:01:34.148Z,7.57
2018-11-13T02:04:02.398Z,7.51
2018-11-13T02:06:30.931Z,7.68
2018-11-13T02:08:59.199Z,7.60
2018-11-13T02:11:27.637Z,8.01
2018-11-13T02:13:55.939Z,8.03
2018-11-13T02:16:24.051Z,8.11
2018-11-13T02:18:52.492Z,8.20
2018-11-13T02:21:20.735Z,8.21
2018-11-13T02:23:49.092Z,8.17
2018-11-13T02:26:17.263Z,8.19
2018-11-13T02:28:45.170Z,8.27
2018-11-13T02:31:13.716Z,8.25
2018-11-13T02:33:41.936Z,8.22
2018-11-13T02:36:10.216Z,8.16
2018-11-13T02:38:38.501Z,8.11
2018-11-13T02:41:06.915Z,8.13
2018-11-13T02:43:34.983Z,8.12
2018-11-13T02:46:03.169Z,7.99
2018-11-13T02:48:31.358Z,7.93
2018-11-13T02:51:00.136Z,7.91
2018-11-13T02:53:28.318Z,7.87
2018-11-13T02:55:56.388Z,7.83
2018-11-13T02:58:24.303Z,7.67
2018-11-13T03:00:52.573Z,7.61
2018-11-13T03:03:21.045Z,7.56
2018-11-13T03:05:49.300Z,7.56
2018-11-13T03:08:17.622Z,7.49
2018-11-13T03:10:46.091Z,7.38
2018-11-13T03:13:14.592Z,7.32
2018-11-13T03:15:42.880Z,7.48
2018-11-13T03:18:11.047Z,7.57
2018-11-13T03:20:39.428Z,7.57
2018-11-13T03:23:07.564Z,7.60
2018-11-13T03:25:35.748Z,7.71
2018-11-13T03:28:04.039Z,7.70
2018-11-13T03:30:32.474Z,7.73
2018-11-13T03:33:00.743Z,7.67
2018-11-13T03:35:29.188Z,7.60
2018-11-13T03:37:57.543Z,7.57
2018-11-13T03:40:25.993Z,7.64
2018-11-13T03:42:54.242Z,7.68
2018-11-13T03:45:22.173Z,7.61
2018-11-13T03:47:50.392Z,7.60
2018-11-13T03:50:19.755Z,7.52
2018-11-13T03:52:48.280Z,7.40
2018-11-13T03:55:17.124Z,7.36
2018-11-13T03:57:46.172Z,7.32
2018-11-13T04:00:15.665Z,7.31
2018-11-13T04:02:43.918Z,7.18
2018-11-13T04:05:13.399Z,7.12
2018-11-13T04:07:45.863Z,7.06
2018-11-13T04:10:15.186Z,7.09
2018-11-13T04:12:43.786Z,7.11
2018-11-13T04:15:14.272Z,7.13
2018-11-13T04:17:42.344Z,7.19
2018-11-13T04:20:12.369Z,7.20
2018-11-13T04:22:41.126Z,7.23
2018-11-13T04:25:09.332Z,7.27
2018-11-13T04:27:37.463Z,7.29
2018-11-13T04:30:06.760Z,7.21
2018-11-13T04:32:34.907Z,7.34
2018-11-13T04:35:02.897Z,7.36
2018-11-13T04:37:30.895Z,7.39
2018-11-13T04:39:59.303Z,7.32
2018-11-13T04:42:27.403Z,7.50
2018-11-13T04:44:55.975Z,7.52
2018-11-13T04:47:24.191Z,7.35
2018-11-13T04:49:52.484Z,7.25
2018-11-13T04:52:20.792Z,7.25
2018-11-13T04:54:49.104Z,7.33
2018-11-13T04:57:17.242Z,7.36
2018-11-13T04:59:45.404Z,7.31
2018-11-13T05:02:13.630Z,7.42
2018-11-13T05:04:41.894Z,7.38
2018-11-13T05:07:10.220Z,7.51
2018-11-13T05:09:38.440Z,7.77
2018-11-13T05:12:06.714Z,7.82
2018-11-13T05:14:35.243Z,7.85
2018-11-13T05:17:03.520Z,7.46
2018-11-13T05:19:31.749Z,7.88
2018-11-13T05:22:00.052Z,7.85
2018-11-13T05:24:28.611Z,8.03
2018-11-13T05:26:56.735Z,8.11
2018-11-13T05:29:24.900Z,8.20
2018-11-13T05:31:53.111Z,8.18
2018-11-13T05:34:21.408Z,8.18
2018-11-13T05:36:49.754Z,8.28
2018-11-13T05:39:17.935Z,8.46
2018-11-13T05:41:46.269Z,8.68
2018-11-13T05:44:14.507Z,8.86
2018-11-13T05:46:42.595Z,8.99
2018-11-13T05:49:10.877Z,9.15
2018-11-13T05:51:39.404Z,9.10
2018-11-13T05:54:07.599Z,9.38
2018-11-13T05:56:35.388Z,9.76
2018-11-13T05:59:03.243Z,10.15
2018-11-13T06:01:31.095Z,10.49
2018-11-13T06:03:58.835Z,10.74
2018-11-13T06:06:26.610Z,10.59
2018-11-13T06:08:54.316Z,10.46
2018-11-13T06:11:22.114Z,10.88
2018-11-13T06:13:49.898Z,11.41
2018-11-13T06:16:17.701Z,12.12
2018-11-13T06:18:45.493Z,12.52
2018-11-13T06:21:13.294Z,12.48
2018-11-13T06:23:41.062Z,12.04
2018-11-13T06:26:08.811Z,12.34
2018-11-13T06:28:36.588Z,12.71
2018-11-13T06:31:04.624Z,13.39
2018-11-13T06:33:32.387Z,14.13
2018-11-13T06:36:00.144Z,14.98
2018-11-13T06:38:28.374Z,15.77
2018-11-13T06:40:56.367Z,16.21
2018-11-13T06:43:24.799Z,16.19
2018-11-13T06:45:52.827Z,16.57
2018-11-13T06:48:21.267Z,15.98
2018-11-13T06:50:49.569Z,16.36
2018-11-13T06:53:18.026Z,16.08
2018-11-13T06:55:49.882Z,15.65
2018-11-13T06:58:18.284Z,15.61
2018-11-13T07:00:46.596Z,15.37
2018-11-13T07:03:15.074Z,14.49
2018-11-13T07:05:43.360Z,13.25
2018-11-13T07:08:11.791Z,12.66
2018-11-13T07:10:40.230Z,12.40
2018-11-13T07:13:08.592Z,12.39
2018-11-13T07:15:36.787Z,12.37
2018-11-13T07:18:05.343Z,12.31
2018-11-13T07:20:34.511Z,12.18
2018-11-13T07:23:02.711Z,12.50
2018-11-13T07:25:31.312Z,12.65
2018-11-13T07:27:59.483Z,12.55
2018-11-13T07:30:28.020Z,12.88
2018-11-13T07:32:56.183Z,12.84
2018-11-13T07:35:24.478Z,13.13
2018-11-13T07:37:56.910Z,12.64
2018-11-13T07:40:24.987Z,12.62
2018-11-13T07:42:53.467Z,12.70
2018-11-13T07:45:21.720Z,12.36
2018-11-13T07:47:50.596Z,12.17
2018-11-13T07:50:18.220Z,12.87
2018-11-13T07:52:46.090Z,12.94
2018-11-13T07:55:15.047Z,12.87
2018-11-13T07:57:43.311Z,12.72
2018-11-13T08:00:14.050Z,12.73
2018-11-13T08:02:43.289Z,12.79
2018-11-13T08:05:11.654Z,13.25
2018-11-13T08:07:39.403Z,13.35
2018-11-13T08:10:08.048Z,13.32
2018-11-13T08:12:35.906Z,13.15
2018-11-13T08:15:03.971Z,13.31
2018-11-13T08:17:31.716Z,13.60
2018-11-13T08:19:59.435Z,14.29
2018-11-13T08:22:27.212Z,14.87
2018-11-13T08:24:55.407Z,15.42
2018-11-13T08:27:23.347Z,16.03
2018-11-13T08:29:52.104Z,16.25
2018-11-13T08:32:19.852Z,16.48
2018-11-13T08:34:47.656Z,17.09
2018-11-13T08:37:15.435Z,17.29
2018-11-13T08:39:43.212Z,17.27
2018-11-13T08:42:11.020Z,17.52
2018-11-13T08:44:39.242Z,17.75
2018-11-13T08:47:07.427Z,17.71
2018-11-13T08:49:35.511Z,17.57
2018-11-13T08:52:03.799Z,17.51
2018-11-13T08:54:32.104Z,17.71
2018-11-13T08:57:00.559Z,17.21
2018-11-13T08:59:28.883Z,16.37
2018-11-13T09:01:57.348Z,15.95
2018-11-13T09:04:25.424Z,15.96
2018-11-13T09:06:53.719Z,16.19
2018-11-13T09:09:22.137Z,16.26
2018-11-13T09:11:50.666Z,16.67
2018-11-13T09:14:18.923Z,16.92
2018-11-13T09:16:47.257Z,16.76
2018-11-13T09:19:15.596Z,16.36
2018-11-13T09:21:43.764Z,16.45
2018-11-13T09:24:12.015Z,16.68
2018-11-13T09:26:40.270Z,16.71
2018-11-13T09:29:07.983Z,17.24
2018-11-13T09:31:36.118Z,18.01
2018-11-13T09:34:04.096Z,17.66
2018-11-13T09:36:32.562Z,17.94
2018-11-13T09:39:00.884Z,17.87
2018-11-13T09:41:29.086Z,18.14
2018-11-13T09:43:56.842Z,18.37
2018-11-13T09:46:24.588Z,18.58
2018-11-13T09:48:52.400Z,18.66
2018-11-13T09:51:20.182Z,19.24
2018-11-13T09:53:47.965Z,19.41
2018-11-13T09:56:15.824Z,18.43
2018-11-13T09:58:43.570Z,17.88
2018-11-13T10:01:12.140Z,18.80
2018-11-13T10:03:40.828Z,19.37
2018-11-13T10:06:08.439Z,18.69
2018-11-13T10:08:36.423Z,18.90
2018-11-13T10:11:04.667Z,18.66
2018-11-13T10:13:32.848Z,19.38
2018-11-13T10:16:01.292Z,19.53
2018-11-13T10:18:29.596Z,19.35
2018-11-13T10:20:57.605Z,19.42
2018-11-13T10:23:25.406Z,19.23
2018-11-13T10:25:53.750Z,18.79
2018-11-13T10:28:21.904Z,18.58
2018-11-13T10:30:49.875Z,18.38
2018-11-13T10:33:18.016Z,18.61
2018-11-13T10:35:46.325Z,18.92
2018-11-13T10:38:14.436Z,19.05
2018-11-13T10:40:42.824Z,19.74
2018-11-13T10:43:10.892Z,20.76
2018-11-13T10:45:39.166Z,20.35
2018-11-13T10:48:07.492Z,19.71
2018-11-13T10:50:35.776Z,19.52
2018-11-13T10:53:04.084Z,19.70
2018-11-13T10:55:32.248Z,20.16
2018-11-13T10:58:00.607Z,19.92
2018-11-13T11:00:34.331Z,19.34
2018-11-13T11:03:05.299Z,19.67
2018-11-13T11:05:33.651Z,20.19
2018-11-13T11:08:01.841Z,20.29
2018-11-13T11:10:30.159Z,20.16
2018-11-13T11:12:58.542Z,20.25
2018-11-13T11:15:26.699Z,19.93
2018-11-13T11:17:55.211Z,19.77
2018-11-13T11:20:23.038Z,19.90
2018-11-13T11:22:51.034Z,19.99
2018-11-13T11:25:18.823Z,20.50
2018-11-13T11:27:46.482Z,20.84
2018-11-13T11:30:15.420Z,20.80
2018-11-13T11:32:43.807Z,20.33
2018-11-13T11:35:12.139Z,20.53
2018-11-13T11:37:40.923Z,21.48
2018-11-13T11:40:09.838Z,21.87
2018-11-13T11:42:38.339Z,21.35
2018-11-13T11:45:08.278Z,20.96
2018-11-13T11:47:36.108Z,21.25
2018-11-13T11:50:04.470Z,21.29
2018-11-13T11:52:32.239Z,21.06
2018-11-13T11:55:00.049Z,21.17
2018-11-13T11:57:27.823Z,20.61
2018-11-13T11:59:55.596Z,21.54
2018-11-13T12:02:23.517Z,21.38
2018-11-13T12:04:51.327Z,21.46
2018-11-13T12:07:19.114Z,21.66
2018-11-13T12:09:46.867Z,20.97
2018-11-13T12:12:14.672Z,21.02
2018-11-13T12:14:42.421Z,21.19
2018-11-13T12:17:10.198Z,20.50
2018-11-13T12:19:37.959Z,19.67
2018-11-13T12:22:05.751Z,19.62
2018-11-13T12:24:33.517Z,19.93
2018-11-13T12:27:01.387Z,19.69
2018-11-13T12:29:29.148Z,20.14
2018-11-13T12:31:57.184Z,20.40
2018-11-13T12:34:24.951Z,19.04
2018-11-13T12:36:52.769Z,19.09
2018-11-13T12:39:20.503Z,19.98
2018-11-13T12:41:48.251Z,20.81
2018-11-13T12:44:15.984Z,20.60
2018-11-13T12:46:43.775Z,20.39
2018-11-13T12:49:11.550Z,19.57
2018-11-13T12:51:44.671Z,19.62
2018-11-13T12:54:12.483Z,18.85
2018-11-13T12:56:40.263Z,18.83
2018-11-13T12:59:08.016Z,18.85
2018-11-13T13:01:35.809Z,19.36
2018-11-13T13:04:03.691Z,19.60
2018-11-13T13:06:31.534Z,19.31
2018-11-13T13:08:59.255Z,18.93
2018-11-13T13:11:27.031Z,18.58
2018-11-13T13:14:00.176Z,18.25
2018-11-13T13:16:27.951Z,18.07
2018-11-13T13:18:55.746Z,17.85
2018-11-13T13:21:23.586Z,17.63
2018-11-13T13:23:51.444Z,17.29
2018-11-13T13:26:19.212Z,17.60
2018-11-13T13:28:47.010Z,17.75
2018-11-13T13:31:14.754Z,17.73
2018-11-13T13:33:42.575Z,17.69
2018-11-13T13:36:10.387Z,17.65
2018-11-13T13:38:38.500Z,17.85
2018-11-13T13:41:06.523Z,17.88
2018-11-13T13:43:34.952Z,17.48
2018-11-13T13:46:02.743Z,17.28
2018-11-13T13:48:30.507Z,17.57
2018-11-13T13:50:58.301Z,17.69
2018-11-13T13:53:26.667Z,17.66
2018-11-13T13:55:54.425Z,17.21
2018-11-13T13:58:23.151Z,17.55
2018-11-13T14:00:51.229Z,17.06
2018-11-13T14:03:18.840Z,16.34
2018-11-13T14:05:46.967Z,16.62
2018-11-13T14:08:15.436Z,16.37
2018-11-13T14:10:43.370Z,16.00
2018-11-13T14:13:11.592Z,15.86
2018-11-13T14:15:39.502Z,15.61
2018-11-13T14:18:07.396Z,15.66
2018-11-13T14:20:35.209Z,15.50
2018-11-13T14:23:03.059Z,15.66
2018-11-13T14:25:30.937Z,15.59
2018-11-13T14:27:59.101Z,15.72
2018-11-13T14:30:31.131Z,15.51
2018-11-13T14:33:01.590Z,15.24
2018-11-13T14:35:29.887Z,15.34
2018-11-13T14:37:58.528Z,15.24
2018-11-13T14:40:29.755Z,15.33
2018-11-13T14:42:58.096Z,15.06
2018-11-13T14:45:26.782Z,15.06
2018-11-13T14:47:54.944Z,15.11
2018-11-13T14:50:24.075Z,14.69
2018-11-13T14:52:52.235Z,14.63
2018-11-13T14:55:23.359Z,14.64
2018-11-13T14:57:51.402Z,14.62
2018-11-13T15:00:21.415Z,14.54
2018-11-13T15:02:49.713Z,14.56
2018-11-13T15:05:18.684Z,14.41
2018-11-13T15:07:47.569Z,14.54
2018-11-13T15:10:18.144Z,14.48
2018-11-13T15:12:45.963Z,14.56
2018-11-13T15:15:13.962Z,14.60
2018-11-13T15:17:42.816Z,14.39
2018-11-13T15:20:12.991Z,14.58
2018-11-13T15:22:41.614Z,14.71
2018-11-13T15:25:11.642Z,14.67
2018-11-13T15:27:39.903Z,14.45
2018-11-13T15:30:11.988Z,14.44
2018-11-13T15:32:40.548Z,14.60
2018-11-13T15:35:09.657Z,14.41
2018-11-13T15:37:37.403Z,14.18
2018-11-13T15:40:07.683Z,14.22
2018-11-13T15:42:35.554Z,14.20
2018-11-13T15:45:03.482Z,14.03
2018-11-13T15:47:31.359Z,14.07
2018-11-13T15:52:26.038Z,13.77
2018-11-13T15:54:53.766Z,13.75
2018-11-13T15:57:21.491Z,13.49
2018-11-13T15:59:49.246Z,13.36
2018-11-13T16:02:16.966Z,13.46
2018-11-13T16:04:44.735Z,13.61
2018-11-13T16:07:12.552Z,13.49
2018-11-13T16:09:40.356Z,13.63
2018-11-13T16:12:08.202Z,13.59
2018-11-13T16:14:36.020Z,13.67
2018-11-13T16:17:03.928Z,13.54
2018-11-13T16:19:31.662Z,13.59
2018-11-13T16:21:59.447Z,13.47
2018-11-13T16:24:27.200Z,13.66
2018-11-13T16:26:54.991Z,13.52
2018-11-13T16:29:22.907Z,13.65
2018-11-13T16:31:50.663Z,13.61
2018-11-13T16:34:25.349Z,13.52
2018-11-13T16:36:53.605Z,13.46
2018-11-13T16:39:22.180Z,13.49
2018-11-13T16:41:50.409Z,13.44
2018-11-13T16:44:18.391Z,13.63
2018-11-13T16:46:46.823Z,13.61
2018-11-13T16:49:14.976Z,13.54
2018-11-13T16:51:43.451Z,13.61
2018-11-13T16:54:11.743Z,13.53
2018-11-13T16:56:46.712Z,13.42
2018-11-13T16:59:14.815Z,13.34
2018-11-13T17:01:43.005Z,13.42
2018-11-13T17:04:11.879Z,13.31
2018-11-13T17:06:40.171Z,13.22
2018-11-13T17:09:09.864Z,13.08
2018-11-13T17:11:37.765Z,12.82
2018-11-13T17:14:05.572Z,12.86
2018-11-13T17:16:33.412Z,12.97
2018-11-13T17:19:01.234Z,12.94
2018-11-13T17:21:29.000Z,13.04
2018-11-13T17:23:56.785Z,13.03
2018-11-13T17:26:24.598Z,13.12
2018-11-13T17:28:52.387Z,12.95
2018-11-13T17:31:20.136Z,12.95
2018-11-13T17:33:47.936Z,12.93
2018-11-13T17:36:15.748Z,12.88
2018-11-13T17:38:43.503Z,12.77
2018-11-13T17:41:11.340Z,12.82
2018-11-13T17:43:39.151Z,12.73
2018-11-13T17:46:06.944Z,12.56
2018-11-13T17:48:34.766Z,12.38
2018-11-13T17:51:02.488Z,12.35
2018-11-13T17:53:30.283Z,12.51
2018-11-13T17:55:58.052Z,12.46
2018-11-13T17:58:25.860Z,12.36
2018-11-13T18:00:53.623Z,12.23
2018-11-13T18:03:21.455Z,12.13
2018-11-13T18:05:49.312Z,12.07
2018-11-13T18:08:17.059Z,11.79
2018-11-13T18:10:45.848Z,11.76
2018-11-13T18:13:14.030Z,11.63
2018-11-13T18:15:41.803Z,11.53
2018-11-13T18:18:10.225Z,11.50
2018-11-13T18:20:39.011Z,11.55
2018-11-13T18:23:08.033Z,11.53
2018-11-13T18:25:36.124Z,11.51
2018-11-13T18:28:04.084Z,11.41
2018-11-13T18:30:33.372Z,11.34
2018-11-13T18:33:01.948Z,11.27
2018-11-13T18:35:31.111Z,11.22
2018-11-13T18:37:59.898Z,11.23
2018-11-13T18:40:28.096Z,11.19
2018-11-13T18:42:57.310Z,11.17
2018-11-13T18:45:27.591Z,11.11
2018-11-13T18:47:55.447Z,11.02
2018-11-13T18:50:27.552Z,10.88
2018-11-13T18:52:55.343Z,10.88
2018-11-13T18:55:23.163Z,10.82
2018-11-13T18:57:51.046Z,10.78
2018-11-13T19:00:24.004Z,10.86
2018-11-13T19:02:51.851Z,10.83
2018-11-13T19:05:19.950Z,10.76
2018-11-13T19:07:47.788Z,10.77
2018-11-13T19:10:20.397Z,10.79
2018-11-13T19:12:48.263Z,10.82
2018-11-13T19:15:16.023Z,10.86
2018-11-13T19:17:43.770Z,10.85
2018-11-13T19:20:16.957Z,10.80
2018-11-13T19:22:44.789Z,10.69
2018-11-13T19:25:17.016Z,10.58
2018-11-13T19:27:45.733Z,10.43
2018-11-13T19:30:14.739Z,10.39
2018-11-13T19:32:42.882Z,10.32
2018-11-13T19:35:11.297Z,10.13
2018-11-13T19:37:39.465Z,10.08
2018-11-13T19:40:10.042Z,10.14
2018-11-13T19:42:38.211Z,10.12
2018-11-13T19:45:06.969Z,9.98
2018-11-13T19:47:35.259Z,9.93
2018-11-13T19:50:03.708Z,9.87
2018-11-13T19:52:31.960Z,9.73
2018-11-13T19:55:00.529Z,9.63
2018-11-13T19:57:28.709Z,9.48
2018-11-13T19:59:57.610Z,9.58
2018-11-13T20:02:26.092Z,9.59
2018-11-13T20:04:54.382Z,9.55
2018-11-13T20:07:22.827Z,9.61
2018-11-13T20:09:51.167Z,9.61
2018-11-13T20:12:19.595Z,9.60
2018-11-13T20:14:48.144Z,9.62
2018-11-13T20:17:16.419Z,9.60
2018-11-13T20:19:44.722Z,9.62
2018-11-13T20:22:12.906Z,9.61
2018-11-13T20:24:41.253Z,9.58
2018-11-13T20:27:09.443Z,9.52
2018-11-13T20:29:37.905Z,9.48
2018-11-13T20:32:06.048Z,9.42
2018-11-13T20:34:34.263Z,9.34
2018-11-13T20:37:02.357Z,9.36
2018-11-13T20:39:30.695Z,9.30
2018-11-13T20:41:59.136Z,9.25
2018-11-13T20:44:27.237Z,9.26
2018-11-13T20:46:55.700Z,9.23
2018-11-13T20:49:23.986Z,9.24
2018-11-13T20:51:52.183Z,9.23
2018-11-13T20:54:20.322Z,9.18
2018-11-13T20:56:48.550Z,9.17
2018-11-13T20:59:17.064Z,9.22
2018-11-13T21:01:45.181Z,9.22
2018-11-13T21:04:13.625Z,9.09
2018-11-13T21:06:41.827Z,9.04
2018-11-13T21:09:09.784Z,9.09
2018-11-13T21:11:38.031Z,9.08
2018-11-13T21:14:06.324Z,9.00
2018-11-13T21:16:35.032Z,9.05
2018-11-13T21:19:03.072Z,9.10
2018-11-13T21:21:31.128Z,9.08
2018-11-13T21:23:59.794Z,9.00
2018-11-13T21:26:27.807Z,8.95
2018-11-13T21:28:55.927Z,8.95
2018-11-13T21:31:23.700Z,8.93
2018-11-13T21:33:51.653Z,8.94
2018-11-13T21:36:19.393Z,8.84
2018-11-13T21:38:47.192Z,8.85
2018-11-13T21:41:14.950Z,8.85
2018-11-13T21:43:43.347Z,8.71
2018-11-13T21:46:11.892Z,8.63
2018-11-13T21:48:40.075Z,8.68
2018-11-13T21:51:08.166Z,8.69
2018-11-13T21:53:36.507Z,8.72
2018-11-13T21:56:04.691Z,8.74
2018-11-13T21:58:32.795Z,8.67
2018-11-13T22:01:01.080Z,8.61
2018-11-13T22:03:29.356Z,8.59
2018-11-13T22:05:57.922Z,8.60
2018-11-13T22:08:26.234Z,8.65
2018-11-13T22:10:54.358Z,8.70
2018-11-13T22:13:22.436Z,8.61
2018-11-13T22:15:50.977Z,8.61
2018-11-13T22:18:19.236Z,8.68
2018-11-13T22:20:47.686Z,8.62
2018-11-13T22:23:16.011Z,8.40
2018-11-13T22:25:44.228Z,8.48
2018-11-13T22:28:12.781Z,8.58
2018-11-13T22:30:40.848Z,8.50
2018-11-13T22:33:09.272Z,8.52
2018-11-13T22:35:37.564Z,8.53
2018-11-13T22:38:06.046Z,8.54
2018-11-13T22:40:34.383Z,8.46
2018-11-13T22:43:02.584Z,8.39
2018-11-13T22:45:30.871Z,8.47
2018-11-13T22:47:59.233Z,8.47
2018-11-13T22:50:34.230Z,8.42
2018-11-13T22:53:02.082Z,8.39
2018-11-13T22:55:29.862Z,8.41
2018-11-13T22:57:58.928Z,8.36
2018-11-13T23:00:36.498Z,8.32
2018-11-13T23:03:05.682Z,8.40
2018-11-13T23:05:33.430Z,8.32
2018-11-13T23:08:01.210Z,8.40
2018-11-13T23:10:29.028Z,8.44
2018-11-13T23:12:56.847Z,8.33
2018-11-13T23:15:24.535Z,8.26
2018-11-13T23:17:53.063Z,8.28
2018-11-13T23:20:21.230Z,8.21
2018-11-13T23:22:50.374Z,8.29
2018-11-13T23:25:19.320Z,8.25
2018-11-13T23:27:48.783Z,8.32
2018-11-13T23:30:21.534Z,8.37
2018-11-13T23:32:50.148Z,8.43
2018-11-13T23:35:18.403Z,8.45
2018-11-13T23:37:48.794Z,8.42
2018-11-13T23:40:18.066Z,8.47
2018-11-13T23:42:46.560Z,8.45
2018-11-13T23:45:15.806Z,8.33
2018-11-13T23:47:44.308Z,8.31
2018-11-13T23:50:12.803Z,8.31
2018-11-13T23:52:41.038Z,8.31
2018-11-13T23:55:10.324Z,8.31
2018-11-13T23:57:38.780Z,8.23
